createdAt,value
2023-04-22T00:00:02.158Z,18.66
2023-04-22T00:15:01.821Z,18.36
2023-04-22T00:30:01.506Z,18.05
2023-04-22T00:45:02.171Z,18.17
2023-04-22T01:00:01.783Z,17.05
2023-04-22T01:15:04.757Z,16.51
2023-04-22T01:30:01.764Z,16
2023-04-22T01:45:02.363Z,15.62
2023-04-22T02:00:01.971Z,15.27
2023-04-22T02:15:01.576Z,15
2023-04-22T02:30:02.228Z,14.9
2023-04-22T02:45:01.808Z,14.78
2023-04-22T03:00:01.389Z,14.73
2023-04-22T03:15:02.053Z,14.78
2023-04-22T03:30:01.673Z,15.08
2023-04-22T03:45:02.413Z,15.31
2023-04-22T04:00:02.055Z,15.84
2023-04-22T04:15:01.736Z,15.68
2023-04-22T04:30:01.378Z,15.75
2023-04-22T04:45:02.017Z,15.8
2023-04-22T05:00:01.676Z,15.88
2023-04-22T05:15:01.354Z,16.36
2023-04-22T05:30:02.035Z,16.9
2023-04-22T05:45:01.656Z,17.72
2023-04-22T06:00:01.532Z,18.77
2023-04-22T06:15:02.292Z,19.28
2023-04-22T06:30:01.999Z,20.09
2023-04-22T06:45:01.581Z,20.73
2023-04-22T07:00:02.195Z,21.57
2023-04-22T07:15:01.832Z,22.94
2023-04-22T07:30:02.441Z,23.27
2023-04-22T07:45:02.093Z,24.92
2023-04-22T08:00:01.722Z,26.01
2023-04-22T08:15:02.370Z,28.42
2023-04-22T08:30:01.970Z,30.17
2023-04-22T08:45:01.617Z,34.23
2023-04-22T09:00:02.326Z,32.36
2023-04-22T09:15:01.977Z,34.36
2023-04-22T09:30:01.634Z,36.05
2023-04-22T09:45:02.492Z,36.5
2023-04-22T10:00:02.158Z,37.02
2023-04-22T10:15:01.828Z,39.12
2023-04-22T10:30:01.450Z,37.13
2023-04-22T10:45:02.079Z,37.48
2023-04-22T11:00:01.684Z,39.21
2023-04-22T11:15:02.344Z,38.87
2023-04-22T11:30:01.989Z,37.95
2023-04-22T11:45:01.652Z,38.57
2023-04-22T12:00:02.270Z,39
2023-04-22T12:15:01.890Z,38.23
2023-04-22T12:30:01.523Z,41
2023-04-22T12:45:02.134Z,40.64
2023-04-22T13:00:01.756Z,37.7
2023-04-22T13:15:01.396Z,40.47
2023-04-22T13:30:02.104Z,38.87
2023-04-22T13:45:01.756Z,32.77
2023-04-22T14:00:01.377Z,30.51
2023-04-22T14:15:01.973Z,32.55
2023-04-22T14:30:01.669Z,37.24
2023-04-22T14:45:01.339Z,38.44
2023-04-22T15:00:01.933Z,35.43
2023-04-22T15:15:01.630Z,32.9
2023-04-22T15:30:01.239Z,30.83
2023-04-22T15:45:03.671Z,29.3
2023-04-22T16:00:10.115Z,27.62
2023-04-22T16:15:02.039Z,26.85
2023-04-22T16:30:01.766Z,25.52
2023-04-22T16:45:01.463Z,24.09
2023-04-22T17:00:02.113Z,23.01
2023-04-22T17:15:01.728Z,21.05
2023-04-22T17:30:01.402Z,21.01
2023-04-22T17:45:01.992Z,20.75
2023-04-22T18:00:01.593Z,20.55
2023-04-22T18:15:01.217Z,19.66
2023-04-22T18:30:01.949Z,19.34
2023-04-22T18:45:04.201Z,19.28
2023-04-22T19:00:01.348Z,19.39
2023-04-22T19:15:02.002Z,19.15
2023-04-22T19:30:01.647Z,18.42
2023-04-22T19:45:01.301Z,18.24
2023-04-22T20:00:01.869Z,18.13
2023-04-22T20:15:01.520Z,18.03
2023-04-22T20:30:01.162Z,17.87
2023-04-22T20:45:01.819Z,17.75
2023-04-22T21:00:01.447Z,17.61
2023-04-22T21:15:01.078Z,17.64
2023-04-22T21:30:01.726Z,17.77
2023-04-22T21:45:01.404Z,17.99
2023-04-22T22:00:01.275Z,18.03
2023-04-22T22:15:02.027Z,17.72
2023-04-22T22:30:01.918Z,17.67
2023-04-22T22:45:01.661Z,17.41
2023-04-22T23:00:02.324Z,17.22
2023-04-22T23:15:01.961Z,16.94
2023-04-22T23:30:01.616Z,16.9
2023-04-22T23:45:02.301Z,16.42
